Time;durP1;ratioP1;P1;durP2;ratioP2;P2;SDS_P1;SDS_P2;PMS_P1;PMS_P2;Temp;Humidity;BMP_temperature;BMP_pressure;BME280_temperature;BME280_humidity;BME280_pressure;Samples;Min_cycle;Max_cycle;Signal;HPM_P1;HPM_P2
2023/06/29 00:00:00;;;;;;;6.60;5.18;;;19.50;86.10;;;;;;5059908;28;20032;-77
2023/06/29 00:02:26;;;;;;;6.20;5.60;;;19.60;86.20;;;;;;5061968;28;20529;-77
2023/06/29 00:04:55;;;;;;;5.75;5.25;;;19.60;86.20;;;;;;5058587;28;20032;-77
2023/06/29 00:07:24;;;;;;;7.00;5.85;;;19.50;86.30;;;;;;5061671;28;20395;-76
2023/06/29 00:09:52;;;;;;;6.22;5.43;;;19.50;86.50;;;;;;5057889;28;20032;-75
2023/06/29 00:12:18;;;;;;;5.53;4.93;;;19.50;86.70;;;;;;5059612;28;20123;-76
2023/06/29 00:14:44;;;;;;;6.70;5.45;;;19.50;86.70;;;;;;5059606;28;20684;-75
2023/06/29 00:17:14;;;;;;;5.63;5.13;;;19.40;87.40;;;;;;5062832;28;21400;-78
2023/06/29 00:19:41;;;;;;;7.10;5.85;;;19.50;87.00;;;;;;5061341;28;20147;-76
2023/06/29 00:22:08;;;;;;;5.63;5.10;;;19.40;86.90;;;;;;5060858;28;20538;-77
2023/06/29 00:24:42;;;;;;;5.32;4.88;;;19.40;86.90;;;;;;5060584;28;20043;-77
2023/06/29 00:27:15;;;;;;;8.30;5.88;;;19.40;87.10;;;;;;5060169;28;20128;-77
2023/06/29 00:29:42;;;;;;;7.13;5.57;;;19.40;87.30;;;;;;5059411;28;20036;-77
2023/06/29 00:32:12;;;;;;;6.78;5.53;;;19.40;87.40;;;;;;5059172;28;20036;-76
2023/06/29 00:34:39;;;;;;;7.47;5.57;;;19.40;87.20;;;;;;5059402;28;20056;-75
2023/06/29 00:37:05;;;;;;;6.20;5.60;;;19.40;87.20;;;;;;5060645;28;20032;-75
2023/06/29 00:39:34;;;;;;;6.00;5.40;;;19.40;87.30;;;;;;5059603;28;20037;-75
2023/06/29 00:42:00;;;;;;;5.72;5.15;;;19.30;87.30;;;;;;5058704;28;20115;-75
2023/06/29 00:44:26;;;;;;;5.43;4.93;;;19.30;87.30;;;;;;5041921;28;20124;-77
2023/06/29 00:46:53;;;;;;;5.82;5.22;;;19.30;87.30;;;;;;5059384;28;20047;-77
2023/06/29 00:49:20;;;;;;;7.00;5.43;;;19.30;87.30;;;;;;5060062;28;20078;-76
2023/06/29 00:51:49;;;;;;;5.63;5.03;;;19.30;87.50;;;;;;5058420;28;20067;-77
2023/06/29 00:54:17;;;;;;;5.63;5.03;;;19.30;87.50;;;;;;5058878;28;20032;-77
2023/06/29 00:56:44;;;;;;;6.55;4.50;;;19.30;87.60;;;;;;5058704;28;20033;-77
2023/06/29 00:59:10;;;;;;;5.80;4.63;;;19.30;87.50;;;;;;5058128;28;20036;-79
2023/06/29 01:01:39;;;;;;;6.18;5.00;;;19.30;87.50;;;;;;5058870;28;20078;-77
2023/06/29 01:04:06;;;;;;;5.03;4.53;;;19.30;87.50;;;;;;5061070;28;20138;-78
2023/06/29 01:06:44;;;;;;;4.30;3.90;;;19.30;87.40;;;;;;5061803;28;20044;-78
2023/06/29 01:09:12;;;;;;;5.07;4.57;;;19.30;87.50;;;;;;5057023;28;20122;-78
2023/06/29 01:11:38;;;;;;;5.25;4.43;;;19.30;87.50;;;;;;5058963;28;20035;-78
2023/06/29 01:14:06;;;;;;;4.72;4.18;;;19.30;87.50;;;;;;5058599;28;20041;-77
2023/06/29 01:16:36;;;;;;;4.85;4.45;;;19.30;87.60;;;;;;5043679;28;20389;-75
2023/06/29 01:19:11;;;;;;;4.93;4.53;;;19.30;87.70;;;;;;5060201;28;20051;-77
2023/06/29 01:21:47;;;;;;;5.47;4.22;;;19.40;88.10;;;;;;5043272;28;20406;-77
2023/06/29 01:24:14;;;;;;;5.00;4.50;;;19.40;88.10;;;;;;5061948;28;20033;-78
2023/06/29 01:26:40;;;;;;;4.88;4.10;;;19.40;88.40;;;;;;5057795;28;20036;-77
2023/06/29 01:29:06;;;;;;;4.85;4.18;;;19.40;88.90;;;;;;5060267;28;20432;-76
2023/06/29 01:31:33;;;;;;;5.28;4.18;;;19.40;88.30;;;;;;5056761;28;20032;-78
2023/06/29 01:33:59;;;;;;;4.90;4.38;;;19.40;88.30;;;;;;5059614;28;20035;-76
2023/06/29 01:36:35;;;;;;;5.60;3.80;;;19.40;88.30;;;;;;5058529;28;20084;-75
2023/06/29 01:39:27;;;;;;;7.00;4.93;;;19.40;88.40;;;;;;5060374;28;20037;-76
2023/06/29 01:41:54;;;;;;;4.78;4.28;;;19.40;88.40;;;;;;5059043;28;20127;-77
2023/06/29 01:44:20;;;;;;;4.88;4.25;;;19.40;88.40;;;;;;5059289;28;20538;-78
2023/06/29 01:46:47;;;;;;;5.28;4.20;;;19.40;88.40;;;;;;5062162;28;20048;-76
2023/06/29 01:49:13;;;;;;;4.70;4.30;;;19.40;88.40;;;;;;5059456;28;20040;-77
2023/06/29 01:51:39;;;;;;;4.18;3.83;;;19.40;88.40;;;;;;5057863;28;20934;-77
2023/06/29 01:54:05;;;;;;;5.15;4.40;;;19.40;88.50;;;;;;5061410;28;20041;-77
2023/06/29 01:56:31;;;;;;;3.97;3.58;;;19.50;88.50;;;;;;5057565;28;20047;-76
2023/06/29 01:59:01;;;;;;;4.63;4.18;;;19.50;88.50;;;;;;5056527;28;20045;-76
2023/06/29 02:01:28;;;;;;;4.47;4.07;;;19.50;88.80;;;;;;5055907;28;20037;-75
2023/06/29 02:03:53;;;;;;;8.25;4.28;;;19.50;88.50;;;;;;5059125;28;20411;-77
2023/06/29 02:06:19;;;;;;;4.38;3.97;;;19.50;88.70;;;;;;5059085;28;20036;-76
2023/06/29 02:08:45;;;;;;;4.57;4.18;;;19.50;89.00;;;;;;5057499;28;20048;-76
2023/06/29 02:11:11;;;;;;;5.43;3.83;;;19.50;88.70;;;;;;5056940;28;20167;-75
2023/06/29 02:13:39;;;;;;;4.57;4.18;;;19.50;88.40;;;;;;5044060;28;20070;-75
2023/06/29 02:16:05;;;;;;;4.35;3.92;;;19.50;88.60;;;;;;5061208;28;20048;-76
2023/06/29 02:18:31;;;;;;;4.88;4.38;;;19.50;88.60;;;;;;5043539;28;20037;-76
2023/06/29 02:20:57;;;;;;;4.30;3.90;;;19.50;88.50;;;;;;5058455;28;20045;-76
2023/06/29 02:23:23;;;;;;;5.43;4.03;;;19.50;89.00;;;;;;5063592;28;20029;-75
2023/06/29 02:25:49;;;;;;;4.43;3.92;;;19.50;89.30;;;;;;5045831;28;20067;-74
2023/06/29 02:28:15;;;;;;;4.47;4.07;;;19.50;89.00;;;;;;5064359;28;20407;-76
2023/06/29 02:30:41;;;;;;;4.18;3.78;;;19.50;89.00;;;;;;5042849;28;20029;-76
2023/06/29 02:33:07;;;;;;;5.53;4.18;;;19.50;89.20;;;;;;5064175;28;20037;-76
2023/06/29 02:35:33;;;;;;;4.30;3.90;;;19.50;89.30;;;;;;5062524;28;20029;-75
2023/06/29 02:37:59;;;;;;;4.40;3.90;;;19.50;89.10;;;;;;5059241;28;20036;-75
2023/06/29 02:40:25;;;;;;;4.53;4.13;;;19.50;89.10;;;;;;5063416;28;20077;-76
2023/06/29 02:42:51;;;;;;;4.30;3.90;;;19.50;89.10;;;;;;5060699;28;20036;-75
2023/06/29 02:45:17;;;;;;;4.68;4.28;;;19.60;89.40;;;;;;5059800;28;20090;-76
2023/06/29 02:47:43;;;;;;;5.93;4.78;;;19.50;89.20;;;;;;5061152;28;20071;-75
2023/06/29 02:50:09;;;;;;;5.70;5.07;;;19.50;89.20;;;;;;5063828;28;20091;-75
2023/06/29 02:52:43;;;;;;;5.88;5.30;;;19.60;89.20;;;;;;5045987;28;20113;-75
2023/06/29 02:55:09;;;;;;;7.43;5.88;;;19.50;89.10;;;;;;5062704;28;20037;-74
2023/06/29 02:57:35;;;;;;;6.47;5.35;;;19.50;89.20;;;;;;5063219;28;20547;-75
2023/06/29 03:00:00;;;;;;;6.45;5.85;;;19.60;89.40;;;;;;5061463;28;20040;-75
2023/06/29 03:02:26;;;;;;;7.00;6.40;;;19.50;89.30;;;;;;5063106;28;20392;-75
2023/06/29 03:04:52;;;;;;;7.18;6.18;;;19.60;89.40;;;;;;5061099;28;20112;-73
2023/06/29 03:07:19;;;;;;;7.88;7.18;;;19.60;89.60;;;;;;5058915;28;20036;-76
2023/06/29 03:09:45;;;;;;;7.38;6.68;;;19.60;89.40;;;;;;5064945;28;20578;-72
2023/06/29 03:12:12;;;;;;;8.10;7.30;;;19.60;89.20;;;;;;5061792;28;20064;-73
2023/06/29 03:14:38;;;;;;;8.95;7.20;;;19.60;89.10;;;;;;5061812;28;20043;-73
2023/06/29 03:17:05;;;;;;;7.22;6.53;;;19.70;88.70;;;;;;5061044;28;20032;-78
2023/06/29 03:19:31;;;;;;;7.55;6.40;;;19.70;88.60;;;;;;5059629;28;20040;-74
2023/06/29 03:21:57;;;;;;;6.90;6.22;;;19.70;88.30;;;;;;5062934;28;20118;-74
2023/06/29 03:24:23;;;;;;;6.05;5.50;;;19.70;87.90;;;;;;5061969;28;20029;-76
2023/06/29 03:26:48;;;;;;;6.63;6.00;;;19.70;87.80;;;;;;5062675;28;20047;-73
2023/06/29 03:29:14;;;;;;;6.15;5.60;;;19.80;87.50;;;;;;5061223;28;20033;-74
2023/06/29 03:31:40;;;;;;;6.32;5.75;;;19.80;87.30;;;;;;5062211;28;20101;-78
2023/06/29 03:34:06;;;;;;;5.88;5.28;;;19.80;86.90;;;;;;5061915;28;20028;-76
2023/06/29 03:36:32;;;;;;;5.93;4.90;;;19.80;86.60;;;;;;5058308;28;20056;-77
2023/06/29 03:38:58;;;;;;;6.20;5.18;;;19.80;86.60;;;;;;5062951;28;20036;-78
2023/06/29 03:41:24;;;;;;;6.18;5.55;;;19.80;86.70;;;;;;5061181;28;20082;-77
2023/06/29 03:43:50;;;;;;;5.72;5.22;;;19.80;86.60;;;;;;5061836;28;20120;-77
2023/06/29 03:46:16;;;;;;;5.82;5.22;;;19.80;86.40;;;;;;5062210;28;20040;-78
2023/06/29 03:48:42;;;;;;;5.82;5.00;;;19.80;86.30;;;;;;5061172;28;20050;-76
2023/06/29 03:51:08;;;;;;;5.85;5.15;;;19.80;86.20;;;;;;5061245;28;20074;-77
2023/06/29 03:53:34;;;;;;;5.35;4.85;;;19.80;86.10;;;;;;5062103;28;20036;-76
2023/06/29 03:55:59;;;;;;;4.85;4.35;;;19.80;86.00;;;;;;5061735;28;20043;-76
2023/06/29 03:58:25;;;;;;;5.63;5.00;;;19.80;86.00;;;;;;5061402;28;20043;-76
2023/06/29 04:00:51;;;;;;;6.47;5.05;;;19.80;85.70;;;;;;5062534;28;20412;-78
2023/06/29 04:03:17;;;;;;;5.28;4.57;;;19.80;85.70;;;;;;5062137;28;20032;-77
2023/06/29 04:05:43;;;;;;;6.38;4.72;;;19.80;85.90;;;;;;5062313;28;20036;-73
2023/06/29 04:08:09;;;;;;;5.13;4.45;;;19.80;86.00;;;;;;5062396;28;20048;-73
2023/06/29 04:10:35;;;;;;;6.25;4.80;;;19.80;85.90;;;;;;5060740;28;20542;-76
2023/06/29 04:13:01;;;;;;;4.80;4.25;;;19.80;86.10;;;;;;5062492;28;20036;-75
2023/06/29 04:15:27;;;;;;;6.78;4.68;;;19.90;85.80;;;;;;5061282;28;21012;-76
2023/06/29 04:17:53;;;;;;;5.05;4.50;;;19.90;85.30;;;;;;5061560;28;20049;-76
2023/06/29 04:20:19;;;;;;;6.35;4.35;;;19.90;85.40;;;;;;5059373;28;20040;-75
2023/06/29 04:22:45;;;;;;;4.70;4.30;;;19.90;85.30;;;;;;5060736;28;20386;-76
2023/06/29 04:25:11;;;;;;;4.45;4.05;;;19.90;85.60;;;;;;5060701;28;20094;-75
2023/06/29 04:27:37;;;;;;;5.75;4.03;;;19.90;85.00;;;;;;5062058;28;20036;-75
2023/06/29 04:30:04;;;;;;;5.03;3.92;;;19.90;84.40;;;;;;5060995;28;20039;-76
2023/06/29 04:32:31;;;;;;;4.65;4.20;;;19.90;84.20;;;;;;5060058;28;20029;-76
2023/06/29 04:34:57;;;;;;;4.25;3.85;;;19.90;84.10;;;;;;5059436;28;20036;-76
2023/06/29 04:37:23;;;;;;;4.35;3.95;;;19.90;84.00;;;;;;5058972;28;20034;-76
2023/06/29 04:39:49;;;;;;;4.28;3.92;;;19.80;83.70;;;;;;5060709;28;20029;-76
2023/06/29 04:42:17;;;;;;;4.75;4.35;;;19.80;83.90;;;;;;5059535;28;20039;-75
2023/06/29 04:44:44;;;;;;;4.90;4.35;;;19.80;83.90;;;;;;5061021;28;20507;-76
2023/06/29 04:47:10;;;;;;;4.32;3.70;;;19.80;84.00;;;;;;5060799;28;20860;-78
2023/06/29 04:49:38;;;;;;;4.60;4.20;;;19.80;84.00;;;;;;5060398;28;20029;-75
2023/06/29 04:52:05;;;;;;;5.00;4.00;;;19.80;83.70;;;;;;5061305;28;20111;-76
2023/06/29 04:54:31;;;;;;;6.10;4.13;;;19.80;83.70;;;;;;5060712;28;20040;-76
2023/06/29 04:56:57;;;;;;;4.78;4.38;;;19.80;83.70;;;;;;5059837;28;20036;-76
2023/06/29 04:59:24;;;;;;;4.47;4.07;;;19.80;83.80;;;;;;5058338;28;20032;-77
2023/06/29 05:01:50;;;;;;;4.90;4.10;;;19.80;84.10;;;;;;5059050;28;20040;-77
2023/06/29 05:04:17;;;;;;;6.50;4.50;;;19.80;84.00;;;;;;5059862;28;20412;-76
2023/06/29 05:06:43;;;;;;;5.75;4.32;;;19.70;83.60;;;;;;5058504;28;20499;-76
2023/06/29 05:09:09;;;;;;;5.28;4.32;;;19.70;83.40;;;;;;5057655;28;20028;-76
2023/06/29 05:11:35;;;;;;;6.82;4.22;;;19.70;83.40;;;;;;5059171;28;20306;-76
2023/06/29 05:14:01;;;;;;;4.60;4.20;;;19.70;83.30;;;;;;5059312;28;20128;-76
2023/06/29 05:16:28;;;;;;;4.85;4.45;;;19.70;83.40;;;;;;5060240;28;20660;-77
2023/06/29 05:18:54;;;;;;;4.70;4.30;;;19.70;83.20;;;;;;5060801;28;20028;-76
2023/06/29 05:21:21;;;;;;;5.45;4.30;;;19.70;83.20;;;;;;5057982;28;20049;-75
2023/06/29 05:23:47;;;;;;;5.88;4.45;;;19.70;83.50;;;;;;5058442;28;20444;-75
2023/06/29 05:26:13;;;;;;;5.10;4.60;;;19.70;83.60;;;;;;5057312;28;20514;-74
2023/06/29 05:28:39;;;;;;;4.50;4.05;;;19.80;83.40;;;;;;5058904;28;20029;-75
2023/06/29 05:31:05;;;;;;;4.70;4.25;;;19.80;83.30;;;;;;5060047;28;20186;-74
2023/06/29 05:33:31;;;;;;;5.15;4.28;;;19.80;83.20;;;;;;5060359;28;20143;-74
2023/06/29 05:35:57;;;;;;;4.65;4.18;;;19.80;83.00;;;;;;5059640;28;20522;-74
2023/06/29 05:38:24;;;;;;;4.03;3.72;;;19.80;82.70;;;;;;5058889;28;20040;-74
2023/06/29 05:40:50;;;;;;;5.88;4.20;;;19.90;82.30;;;;;;5060352;28;20049;-73
2023/06/29 05:43:16;;;;;;;5.97;4.03;;;19.90;82.00;;;;;;5060775;28;20082;-73
2023/06/29 05:45:42;;;;;;;4.95;3.90;;;20.00;82.10;;;;;;5058887;28;20035;-72
2023/06/29 05:48:08;;;;;;;6.30;3.72;;;20.10;82.30;;;;;;5060305;28;20029;-74
2023/06/29 05:50:34;;;;;;;3.85;3.45;;;20.10;82.20;;;;;;5060280;28;20029;-74
2023/06/29 05:53:00;;;;;;;3.97;3.42;;;20.10;81.60;;;;;;5060438;28;20033;-74
2023/06/29 05:55:26;;;;;;;6.40;3.63;;;20.30;81.30;;;;;;5060127;28;20147;-75
2023/06/29 05:57:52;;;;;;;3.78;3.10;;;20.40;81.20;;;;;;5061696;28;20036;-74
2023/06/29 06:00:18;;;;;;;4.75;3.03;;;20.70;80.60;;;;;;5061493;28;20205;-74
2023/06/29 06:02:44;;;;;;;5.43;3.15;;;21.00;80.10;;;;;;5060327;28;20565;-74
2023/06/29 06:05:10;;;;;;;2.60;2.40;;;21.30;79.60;;;;;;5063516;28;20120;-73
2023/06/29 06:07:37;;;;;;;4.55;3.13;;;21.50;78.60;;;;;;5061542;28;20029;-72
2023/06/29 06:10:04;;;;;;;3.35;2.78;;;21.70;77.60;;;;;;5064472;28;20064;-73
2023/06/29 06:12:30;;;;;;;5.75;2.97;;;21.90;76.70;;;;;;5062709;28;20048;-72
2023/06/29 06:14:56;;;;;;;3.20;2.90;;;22.00;76.10;;;;;;5063675;28;20749;-73
2023/06/29 06:17:22;;;;;;;2.90;2.70;;;22.10;75.10;;;;;;5062981;28;20499;-72
2023/06/29 06:19:48;;;;;;;5.28;2.60;;;22.20;75.10;;;;;;5062251;28;20043;-72
2023/06/29 06:22:14;;;;;;;3.60;3.10;;;22.40;74.80;;;;;;5064270;28;20419;-72
2023/06/29 06:24:40;;;;;;;3.10;2.80;;;22.50;73.60;;;;;;5061453;28;20033;-73
2023/06/29 06:27:07;;;;;;;4.50;2.60;;;22.60;72.90;;;;;;5063387;28;20465;-74
2023/06/29 06:29:33;;;;;;;3.55;3.25;;;22.80;73.10;;;;;;5059953;28;20055;-73
2023/06/29 06:31:59;;;;;;;3.47;3.00;;;23.00;72.30;;;;;;5059125;28;20478;-74
2023/06/29 06:34:27;;;;;;;3.80;3.28;;;23.10;70.80;;;;;;5064162;28;20120;-73
2023/06/29 06:36:53;;;;;;;7.80;3.38;;;23.00;70.10;;;;;;5048991;28;20451;-73
2023/06/29 06:39:19;;;;;;;6.78;3.10;;;22.90;70.50;;;;;;5063190;28;20038;-74
2023/06/29 06:41:45;;;;;;;4.07;3.10;;;23.10;71.00;;;;;;5063898;28;20032;-73
2023/06/29 06:44:14;;;;;;;3.47;3.17;;;23.30;70.90;;;;;;5061874;28;20037;-73
2023/06/29 06:46:40;;;;;;;5.25;3.30;;;23.50;70.10;;;;;;5062176;28;20537;-72
2023/06/29 06:49:06;;;;;;;3.65;3.25;;;23.70;69.10;;;;;;5061130;28;20075;-73
2023/06/29 06:51:32;;;;;;;4.20;2.92;;;23.80;68.50;;;;;;5063128;28;20052;-74
2023/06/29 06:53:58;;;;;;;4.43;3.25;;;23.90;68.20;;;;;;5061514;28;20058;-74
2023/06/29 06:56:23;;;;;;;5.00;3.50;;;23.90;67.40;;;;;;5062565;28;20033;-73
2023/06/29 06:58:50;;;;;;;3.55;3.05;;;23.90;67.40;;;;;;5060968;28;20419;-72
2023/06/29 07:01:17;;;;;;;5.55;3.95;;;24.10;67.60;;;;;;5061596;28;20123;-73
2023/06/29 07:03:43;;;;;;;4.35;3.95;;;24.10;66.50;;;;;;5063687;28;20036;-74
2023/06/29 07:06:09;;;;;;;6.93;3.70;;;24.20;66.00;;;;;;5061944;28;20037;-75
2023/06/29 07:08:35;;;;;;;8.07;4.28;;;24.20;66.40;;;;;;5060888;28;20174;-73
2023/06/29 07:11:02;;;;;;;6.88;3.63;;;24.20;67.10;;;;;;5060962;28;20036;-71
2023/06/29 07:13:28;;;;;;;5.47;3.80;;;24.20;67.30;;;;;;5062087;28;20491;-71
2023/06/29 07:15:55;;;;;;;5.43;3.47;;;24.30;66.60;;;;;;5064638;28;20036;-71
2023/06/29 07:18:21;;;;;;;3.60;3.30;;;24.30;66.20;;;;;;5063230;28;20146;-71
2023/06/29 07:20:48;;;;;;;6.22;4.10;;;24.50;66.00;;;;;;5068555;28;20064;-72
2023/06/29 07:23:16;;;;;;;4.55;3.47;;;24.60;65.70;;;;;;5063288;28;20056;-73
2023/06/29 07:25:43;;;;;;;4.03;3.50;;;24.70;65.30;;;;;;5064260;28;20507;-72
2023/06/29 07:28:09;;;;;;;3.60;3.30;;;24.90;65.30;;;;;;5059337;28;20072;-72
2023/06/29 07:30:34;;;;;;;5.45;3.78;;;25.00;65.60;;;;;;5068081;28;20106;-72
2023/06/29 07:33:00;;;;;;;5.03;3.80;;;25.00;64.60;;;;;;5066773;28;20035;-72
2023/06/29 07:35:26;;;;;;;4.32;3.90;;;25.00;64.10;;;;;;5069509;28;20541;-73
2023/06/29 07:37:52;;;;;;;5.60;3.83;;;24.90;63.70;;;;;;5064533;28;20045;-74
2023/06/29 07:40:19;;;;;;;3.58;3.28;;;24.80;64.20;;;;;;5067375;28;20047;-73
2023/06/29 07:42:46;;;;;;;4.90;3.50;;;24.80;64.80;;;;;;5066529;28;20051;-74
2023/06/29 07:45:13;;;;;;;3.88;3.58;;;24.80;64.90;;;;;;5058021;28;20040;-73
2023/06/29 07:47:39;;;;;;;5.57;3.50;;;24.90;64.40;;;;;;5061752;28;20128;-73
2023/06/29 07:50:06;;;;;;;7.22;3.50;;;24.90;64.40;;;;;;5061270;28;20028;-72
2023/06/29 07:52:32;;;;;;;4.10;3.70;;;25.00;64.30;;;;;;5057846;28;20032;-72
2023/06/29 07:54:58;;;;;;;5.78;3.80;;;25.00;63.40;;;;;;5060707;28;20036;-70
2023/06/29 07:57:24;;;;;;;4.30;3.72;;;25.00;63.00;;;;;;5062481;28;20133;-73
2023/06/29 07:59:50;;;;;;;4.88;3.50;;;25.00;63.10;;;;;;5059935;28;20070;-72
2023/06/29 08:02:16;;;;;;;3.90;3.50;;;25.00;62.80;;;;;;5060140;28;20551;-72
2023/06/29 08:04:41;;;;;;;4.45;3.45;;;25.00;62.10;;;;;;5062100;28;20133;-71
2023/06/29 08:07:08;;;;;;;3.53;2.83;;;25.00;61.50;;;;;;5061901;28;20035;-72
2023/06/29 08:09:33;;;;;;;5.32;3.50;;;25.00;61.10;;;;;;5062128;28;20407;-72
2023/06/29 08:11:59;;;;;;;3.40;3.10;;;25.10;61.60;;;;;;5060999;28;20037;-71
2023/06/29 08:14:25;;;;;;;4.40;3.38;;;25.10;61.70;;;;;;5060324;28;20109;-71
2023/06/29 08:16:51;;;;;;;4.63;3.28;;;25.10;61.90;;;;;;5063580;28;20033;-73
2023/06/29 08:19:17;;;;;;;19.42;5.95;;;25.00;62.00;;;;;;5060400;28;20561;-70
2023/06/29 08:21:43;;;;;;;54.05;13.40;;;25.10;62.60;;;;;;5061437;28;20072;-71
2023/06/29 08:24:09;;;;;;;57.08;15.18;;;25.10;63.10;;;;;;5059576;28;20041;-71
2023/06/29 08:26:35;;;;;;;41.55;10.38;;;25.00;62.80;;;;;;5062282;28;20089;-72
2023/06/29 08:29:01;;;;;;;49.20;11.80;;;25.10;63.20;;;;;;5057852;28;20159;-72
2023/06/29 08:31:27;;;;;;;44.60;11.73;;;25.00;63.70;;;;;;5060575;28;20051;-73
2023/06/29 08:33:53;;;;;;;41.42;9.38;;;25.00;64.20;;;;;;5059100;28;20038;-73
2023/06/29 08:36:20;;;;;;;36.50;9.50;;;25.00;63.60;;;;;;5060274;28;20542;-73
2023/06/29 08:38:48;;;;;;;32.10;8.65;;;24.90;64.30;;;;;;5060260;28;20055;-73
2023/06/29 08:41:15;;;;;;;26.83;8.40;;;24.90;63.70;;;;;;5061709;28;20033;-72
2023/06/29 08:43:42;;;;;;;26.25;7.22;;;24.90;63.50;;;;;;5058479;28;20048;-72
2023/06/29 08:46:08;;;;;;;19.48;6.60;;;24.90;63.60;;;;;;5061893;28;20124;-72
2023/06/29 08:48:35;;;;;;;20.23;6.88;;;24.90;63.10;;;;;;5061359;28;20040;-72
2023/06/29 08:51:09;;;;;;;21.77;5.75;;;24.90;63.30;;;;;;5060160;28;20033;-71
2023/06/29 08:53:35;;;;;;;14.75;5.75;;;24.80;62.90;;;;;;5060118;28;20044;-72
2023/06/29 08:56:02;;;;;;;17.60;6.07;;;24.80;63.00;;;;;;5058859;28;20551;-72
2023/06/29 08:58:29;;;;;;;17.95;5.55;;;24.80;63.70;;;;;;5060103;28;20039;-72
2023/06/29 09:00:56;;;;;;;16.33;5.25;;;24.80;64.10;;;;;;5059926;28;20399;-73
2023/06/29 09:03:24;;;;;;;11.20;4.82;;;24.80;64.50;;;;;;5058804;28;20131;-73
2023/06/29 09:05:50;;;;;;;10.35;4.75;;;24.80;63.40;;;;;;5057330;28;20127;-72
2023/06/29 09:08:17;;;;;;;8.35;4.15;;;24.90;63.00;;;;;;5059811;28;20048;-72
2023/06/29 09:10:46;;;;;;;5.47;3.88;;;24.90;62.90;;;;;;5058226;28;20411;-73
2023/06/29 09:13:13;;;;;;;10.10;3.72;;;24.80;62.60;;;;;;5059294;28;20127;-73
2023/06/29 09:15:40;;;;;;;5.15;3.85;;;24.90;62.30;;;;;;5039236;28;20032;-73
2023/06/29 09:18:07;;;;;;;5.30;3.60;;;24.80;62.40;;;;;;5038195;28;20049;-72
2023/06/29 09:20:36;;;;;;;8.13;3.38;;;24.80;62.80;;;;;;5056520;28;20044;-73
2023/06/29 09:23:06;;;;;;;6.47;3.47;;;24.80;62.40;;;;;;5058628;28;20444;-71
2023/06/29 09:25:38;;;;;;;4.47;3.38;;;24.80;63.00;;;;;;5059661;28;20033;-71
2023/06/29 09:28:05;;;;;;;7.60;3.38;;;24.90;61.70;;;;;;5059822;28;20418;-73
2023/06/29 09:30:39;;;;;;;4.75;2.95;;;24.90;60.90;;;;;;5060651;28;20139;-72
2023/06/29 09:33:12;;;;;;;3.80;3.08;;;24.80;60.50;;;;;;5058826;28;20119;-72
2023/06/29 09:35:40;;;;;;;3.92;3.08;;;24.80;61.00;;;;;;5059461;28;20415;-70
2023/06/29 09:38:06;;;;;;;3.78;3.20;;;24.80;60.80;;;;;;5059160;28;20533;-72
2023/06/29 09:40:49;;;;;;;3.42;3.08;;;24.80;60.40;;;;;;5058467;28;20041;-70
2023/06/29 09:43:25;;;;;;;3.10;2.90;;;24.80;61.20;;;;;;5057616;28;20032;-71
2023/06/29 09:45:57;;;;;;;4.15;3.15;;;24.70;62.30;;;;;;5058602;28;20463;-72
2023/06/29 09:48:24;;;;;;;3.65;3.30;;;24.60;61.80;;;;;;5058609;28;20037;-72
2023/06/29 09:50:53;;;;;;;3.72;3.35;;;24.70;61.70;;;;;;5059392;28;20357;-71
2023/06/29 09:53:28;;;;;;;3.58;2.97;;;24.70;62.10;;;;;;5059065;28;20037;-72
2023/06/29 09:55:57;;;;;;;3.33;3.03;;;24.80;60.80;;;;;;5058222;28;20033;-75
2023/06/29 09:58:23;;;;;;;4.15;2.90;;;24.70;60.20;;;;;;5057340;28;20491;-75
2023/06/29 10:00:50;;;;;;;3.30;3.00;;;24.70;60.20;;;;;;5060429;28;20036;-76
2023/06/29 10:03:16;;;;;;;6.13;2.88;;;24.70;59.90;;;;;;5058763;28;20636;-75
2023/06/29 10:05:42;;;;;;;4.70;3.20;;;24.60;59.80;;;;;;5060351;28;20119;-76
2023/06/29 10:08:12;;;;;;;3.75;3.05;;;24.60;60.40;;;;;;5059653;28;20120;-76
2023/06/29 10:10:38;;;;;;;5.43;3.25;;;24.60;60.80;;;;;;5057352;28;20312;-75
2023/06/29 10:13:06;;;;;;;2.90;2.60;;;24.50;61.80;;;;;;5056401;28;20100;-76
2023/06/29 10:15:36;;;;;;;2.83;2.63;;;24.50;61.60;;;;;;5059095;28;20186;-76
2023/06/29 10:18:25;;;;;;;5.20;3.00;;;24.60;60.40;;;;;;5057488;28;20036;-76
2023/06/29 10:20:51;;;;;;;4.43;3.42;;;24.60;60.30;;;;;;5042033;28;20674;-76
2023/06/29 10:23:19;;;;;;;3.22;2.78;;;24.60;60.30;;;;;;5060133;28;20037;-76
2023/06/29 10:25:48;;;;;;;2.95;2.67;;;24.60;59.90;;;;;;5056987;28;20035;-76
2023/06/29 10:28:17;;;;;;;3.85;3.30;;;24.60;60.30;;;;;;5060363;28;20143;-76
2023/06/29 10:30:47;;;;;;;4.43;3.10;;;24.50;59.40;;;;;;5059887;28;20040;-76
2023/06/29 10:33:20;;;;;;;3.60;3.30;;;24.60;59.20;;;;;;5059012;28;20086;-76
2023/06/29 10:36:03;;;;;;;4.03;3.47;;;24.50;59.10;;;;;;5059630;28;20040;-76
2023/06/29 10:38:33;;;;;;;3.83;3.50;;;24.50;59.70;;;;;;5059881;28;20041;-74
2023/06/29 10:40:59;;;;;;;4.45;3.38;;;24.50;59.00;;;;;;5059025;28;20041;-74
2023/06/29 10:43:48;;;;;;;4.30;3.90;;;24.50;58.70;;;;;;5059283;28;20099;-74
2023/06/29 10:46:14;;;;;;;4.00;3.60;;;24.50;58.70;;;;;;5063157;28;20068;-74
2023/06/29 10:48:40;;;;;;;4.60;3.90;;;24.50;58.40;;;;;;5062114;28;20473;-73
2023/06/29 10:51:08;;;;;;;4.72;3.92;;;24.50;58.40;;;;;;5062931;28;20115;-74
2023/06/29 10:53:34;;;;;;;4.60;3.80;;;24.50;57.80;;;;;;5059394;28;20113;-73
2023/06/29 10:56:00;;;;;;;4.57;4.00;;;24.50;57.00;;;;;;5061141;28;20033;-73
2023/06/29 10:58:31;;;;;;;4.28;3.72;;;24.50;57.40;;;;;;5054185;28;20039;-73
2023/06/29 11:00:58;;;;;;;5.72;4.10;;;24.50;57.90;;;;;;5062962;28;20029;-73
2023/06/29 11:03:24;;;;;;;4.35;4.00;;;24.50;57.20;;;;;;5061517;28;20513;-73
2023/06/29 11:05:52;;;;;;;4.40;4.00;;;24.50;57.30;;;;;;5063639;28;20723;-73
2023/06/29 11:08:21;;;;;;;4.90;4.03;;;24.50;58.10;;;;;;5061996;28;20032;-73
2023/06/29 11:10:47;;;;;;;5.55;4.00;;;24.50;57.50;;;;;;5060293;28;20033;-73
2023/06/29 11:13:13;;;;;;;4.72;3.90;;;24.50;57.30;;;;;;5061220;28;20028;-74
2023/06/29 11:15:40;;;;;;;5.93;4.05;;;24.50;57.30;;;;;;5061171;28;20250;-72
2023/06/29 11:18:09;;;;;;;4.22;3.38;;;24.50;57.60;;;;;;5062669;28;20083;-73
2023/06/29 11:20:39;;;;;;;3.65;3.05;;;24.50;56.90;;;;;;5062071;28;20081;-73
2023/06/29 11:23:07;;;;;;;5.40;3.10;;;24.50;57.30;;;;;;5062499;28;20546;-73
2023/06/29 11:25:34;;;;;;;3.90;3.42;;;24.50;56.60;;;;;;5061816;28;20025;-74
2023/06/29 11:28:01;;;;;;;3.53;3.15;;;24.50;56.70;;;;;;5047206;28;20032;-73
2023/06/29 11:30:27;;;;;;;4.05;2.92;;;24.40;56.80;;;;;;5061541;28;20033;-74
2023/06/29 11:32:53;;;;;;;3.15;2.75;;;24.40;57.00;;;;;;5060561;28;20109;-73
2023/06/29 11:35:21;;;;;;;5.53;2.83;;;24.40;57.00;;;;;;5062257;28;20044;-73
2023/06/29 11:37:56;;;;;;;3.33;2.60;;;24.40;57.30;;;;;;5062284;28;20127;-73
2023/06/29 11:40:23;;;;;;;2.58;2.38;;;24.40;57.70;;;;;;5061388;28;20033;-73
2023/06/29 11:42:50;;;;;;;4.68;3.00;;;24.30;57.70;;;;;;5062732;28;20123;-74
2023/06/29 11:45:17;;;;;;;3.08;2.80;;;24.30;57.80;;;;;;5061653;28;20521;-73
2023/06/29 11:47:44;;;;;;;4.35;2.65;;;24.30;57.90;;;;;;5062129;28;20415;-74
2023/06/29 11:50:10;;;;;;;2.83;2.50;;;24.20;59.00;;;;;;5060984;28;21120;-74
2023/06/29 11:52:39;;;;;;;3.25;2.67;;;24.20;58.80;;;;;;5061696;28;20448;-73
2023/06/29 11:55:08;;;;;;;3.45;2.75;;;24.20;59.00;;;;;;5061382;28;20461;-74
2023/06/29 11:57:36;;;;;;;4.60;2.13;;;24.10;59.30;;;;;;5059134;28;20048;-74
2023/06/29 12:00:26;;;;;;;3.88;1.80;;;24.00;59.50;;;;;;5059156;28;20253;-75
2023/06/29 12:02:52;;;;;;;4.78;1.95;;;23.90;59.90;;;;;;5053295;28;20089;-75
2023/06/29 12:05:18;;;;;;;3.58;1.45;;;23.70;61.00;;;;;;5063050;28;20119;-76
2023/06/29 12:07:46;;;;;;;4.47;1.35;;;23.60;62.00;;;;;;5058324;28;20043;-76
2023/06/29 12:10:18;;;;;;;6.00;1.65;;;23.50;62.40;;;;;;5062050;28;20029;-75
2023/06/29 12:12:48;;;;;;;3.63;1.45;;;23.40;62.70;;;;;;5062077;28;20483;-73
2023/06/29 12:15:16;;;;;;;3.15;1.13;;;23.40;62.80;;;;;;5060206;28;20058;-72
2023/06/29 12:17:43;;;;;;;2.60;1.50;;;23.30;63.00;;;;;;5059306;28;20076;-74
2023/06/29 12:20:16;;;;;;;3.80;1.27;;;23.30;63.20;;;;;;5062077;28;20036;-74
2023/06/29 12:22:43;;;;;;;3.58;1.55;;;23.30;63.40;;;;;;5060277;28;20044;-74
2023/06/29 12:25:15;;;;;;;3.97;1.58;;;23.20;63.90;;;;;;5060849;28;20426;-72
2023/06/29 12:27:42;;;;;;;8.05;1.60;;;23.20;64.70;;;;;;5062079;28;20036;-74
2023/06/29 12:30:14;;;;;;;3.72;1.25;;;23.20;65.20;;;;;;5059967;28;20123;-73
2023/06/29 12:32:45;;;;;;;4.50;1.40;;;23.20;65.40;;;;;;5062032;28;20577;-74
2023/06/29 12:35:15;;;;;;;2.10;1.20;;;23.20;65.90;;;;;;5061346;28;20043;-74
2023/06/29 12:37:40;;;;;;;3.10;1.52;;;23.10;66.20;;;;;;5060492;28;20045;-73
2023/06/29 12:40:07;;;;;;;5.45;1.77;;;23.00;66.60;;;;;;5060343;28;20029;-74
2023/06/29 12:42:33;;;;;;;2.83;1.52;;;23.00;66.90;;;;;;5060465;28;20028;-75
2023/06/29 12:45:00;;;;;;;4.53;2.17;;;23.00;67.50;;;;;;5059352;28;20040;-74